createdAt,value
2023-03-17T00:01:17.837Z,1.80
2023-03-17T00:03:47.413Z,2.15
2023-03-17T00:06:17.409Z,1.50
2023-03-17T00:08:46.375Z,1.13
2023-03-17T00:11:15.207Z,1.55
2023-03-17T00:13:43.616Z,1.20
2023-03-17T00:16:15.757Z,1.48
2023-03-17T00:18:45.716Z,1.48
2023-03-17T00:21:14.818Z,1.67
2023-03-17T00:23:45.072Z,1.83
2023-03-17T00:26:14.310Z,1.80
2023-03-17T00:28:43.219Z,2.00
2023-03-17T00:31:14.519Z,1.88
2023-03-17T00:33:43.264Z,1.95
2023-03-17T00:36:15.702Z,1.52
2023-03-17T00:38:43.786Z,1.80
2023-03-17T00:41:12.448Z,2.25
2023-03-17T00:43:40.580Z,1.80
2023-03-17T00:46:13.116Z,2.05
2023-03-17T00:48:41.651Z,1.90
2023-03-17T00:51:13.312Z,1.80
2023-03-17T00:53:41.518Z,1.77
2023-03-17T00:56:13.441Z,2.10
2023-03-17T00:58:42.114Z,2.20
2023-03-17T01:01:10.839Z,2.03
2023-03-17T01:03:39.230Z,2.30
2023-03-17T01:06:08.571Z,2.30
2023-03-17T01:08:40.662Z,2.47
2023-03-17T01:11:16.167Z,2.00
2023-03-17T01:13:44.121Z,1.67
2023-03-17T01:16:12.630Z,2.17
2023-03-17T01:18:40.866Z,2.20
2023-03-17T01:21:09.379Z,1.90
2023-03-17T01:23:38.006Z,2.08
2023-03-17T01:26:07.712Z,1.98
2023-03-17T01:28:36.111Z,2.35
2023-03-17T01:31:05.096Z,2.47
2023-03-17T01:33:33.868Z,1.73
2023-03-17T01:36:01.949Z,1.73
2023-03-17T01:38:29.954Z,2.15
2023-03-17T01:40:58.038Z,2.22
2023-03-17T01:43:29.512Z,2.13
2023-03-17T01:46:23.087Z,2.17
2023-03-17T01:49:04.258Z,2.25
2023-03-17T01:51:35.877Z,1.80
2023-03-17T01:54:08.508Z,1.70
2023-03-17T01:56:38.001Z,2.28
2023-03-17T01:59:09.654Z,1.48
2023-03-17T02:01:39.910Z,1.77
2023-03-17T02:04:09.940Z,2.10
2023-03-17T02:06:55.147Z,2.13
2023-03-17T02:09:25.254Z,2.00
2023-03-17T02:11:53.267Z,2.22
2023-03-17T02:19:01.532Z,1.60
2023-03-17T02:21:42.790Z,1.95
2023-03-17T02:24:18.479Z,2.35
2023-03-17T02:26:48.666Z,2.08
2023-03-17T02:29:17.089Z,1.95
2023-03-17T02:31:45.876Z,2.10
2023-03-17T02:34:13.815Z,2.13
2023-03-17T02:36:43.375Z,2.13
2023-03-17T02:39:11.402Z,1.98
2023-03-17T02:41:39.390Z,2.40
2023-03-17T02:44:07.371Z,2.40
2023-03-17T02:46:35.758Z,2.13
2023-03-17T02:49:03.989Z,1.83
2023-03-17T02:51:33.016Z,2.25
2023-03-17T02:54:02.251Z,2.40
2023-03-17T02:56:30.219Z,2.42
2023-03-17T02:58:58.091Z,2.53
2023-03-17T03:01:26.915Z,2.00
2023-03-17T03:03:54.845Z,2.05
2023-03-17T03:06:23.790Z,2.85
2023-03-17T03:08:52.181Z,2.10
2023-03-17T03:11:21.571Z,2.40
2023-03-17T03:13:49.511Z,2.50
2023-03-17T03:16:17.712Z,1.73
2023-03-17T03:18:45.725Z,2.35
2023-03-17T03:21:13.938Z,2.30
2023-03-17T03:23:41.888Z,2.20
2023-03-17T03:26:09.972Z,1.55
2023-03-17T03:28:39.260Z,2.70
2023-03-17T03:31:07.408Z,2.85
2023-03-17T03:33:35.464Z,2.40
2023-03-17T03:36:03.541Z,2.53
2023-03-17T03:38:31.712Z,2.30
2023-03-17T03:40:59.583Z,1.88
2023-03-17T03:43:27.552Z,2.53
2023-03-17T03:45:56.832Z,2.50
2023-03-17T03:48:24.911Z,2.33
2023-03-17T03:50:57.109Z,2.70
2023-03-17T03:53:25.090Z,2.20
2023-03-17T03:55:53.039Z,1.77
2023-03-17T03:58:21.067Z,2.25
2023-03-17T04:00:49.032Z,2.38
2023-03-17T04:03:18.496Z,2.15
2023-03-17T04:05:46.365Z,2.20
2023-03-17T04:08:14.252Z,2.55
2023-03-17T04:10:42.189Z,2.03
2023-03-17T04:13:10.117Z,2.38
2023-03-17T04:15:38.075Z,2.40
2023-03-17T04:18:06.347Z,2.47
2023-03-17T04:20:35.635Z,2.47
2023-03-17T04:23:03.653Z,2.08
2023-03-17T04:25:31.575Z,2.70
2023-03-17T04:27:59.572Z,2.63
2023-03-17T04:30:27.659Z,2.50
2023-03-17T04:32:55.681Z,2.55
2023-03-17T04:35:23.873Z,2.78
2023-03-17T04:37:53.139Z,2.42
2023-03-17T04:40:21.367Z,2.55
2023-03-17T04:42:49.297Z,2.53
2023-03-17T04:45:17.881Z,2.58
2023-03-17T04:47:47.920Z,2.50
2023-03-17T04:50:20.216Z,2.55
2023-03-17T04:52:52.872Z,2.38
2023-03-17T04:55:28.482Z,2.42
2023-03-17T04:57:58.467Z,2.80
2023-03-17T05:00:26.439Z,2.60
2023-03-17T05:02:54.365Z,2.58
2023-03-17T05:05:22.481Z,2.50
2023-03-17T05:07:50.404Z,2.60
2023-03-17T05:10:18.588Z,2.65
2023-03-17T05:12:47.872Z,2.38
2023-03-17T05:15:16.079Z,3.08
2023-03-17T05:17:43.997Z,1.90
2023-03-17T05:20:12.912Z,2.45
2023-03-17T05:22:41.209Z,2.30
2023-03-17T05:25:09.868Z,2.42
2023-03-17T05:27:37.871Z,3.03
2023-03-17T05:30:08.498Z,2.75
2023-03-17T05:32:36.608Z,2.85
2023-03-17T05:35:06.144Z,2.50
2023-03-17T05:37:34.315Z,2.45
2023-03-17T05:40:03.019Z,2.80
2023-03-17T05:42:30.941Z,2.55
2023-03-17T05:44:59.262Z,2.75
2023-03-17T05:47:28.589Z,2.40
2023-03-17T05:49:56.773Z,2.35
2023-03-17T05:52:25.008Z,2.65
2023-03-17T05:54:53.565Z,2.63
2023-03-17T05:57:21.761Z,2.53
2023-03-17T05:59:50.835Z,2.50
2023-03-17T06:02:18.878Z,2.50
2023-03-17T06:04:48.214Z,2.33
2023-03-17T06:07:16.239Z,2.95
2023-03-17T06:09:44.237Z,2.50
2023-03-17T06:12:12.144Z,2.88
2023-03-17T06:14:40.073Z,2.67
2023-03-17T06:17:08.355Z,2.63
2023-03-17T06:19:36.478Z,2.55
2023-03-17T06:22:05.865Z,2.70
2023-03-17T06:24:33.842Z,2.33
2023-03-17T06:27:02.464Z,3.03
2023-03-17T06:29:30.853Z,2.35
2023-03-17T06:32:09.198Z,2.88
2023-03-17T06:34:45.335Z,2.90
2023-03-17T06:37:14.704Z,2.83
2023-03-17T06:39:42.884Z,2.88
2023-03-17T06:42:11.229Z,2.85
2023-03-17T06:44:39.183Z,2.85
2023-03-17T06:47:07.869Z,2.80
2023-03-17T06:49:36.075Z,2.60
2023-03-17T06:52:04.270Z,3.20
2023-03-17T06:54:33.544Z,3.22
2023-03-17T06:57:02.058Z,2.90
2023-03-17T06:59:30.908Z,2.97
2023-03-17T07:01:59.511Z,2.78
2023-03-17T07:04:27.727Z,2.38
2023-03-17T07:06:55.710Z,2.25
2023-03-17T07:09:23.675Z,2.80
2023-03-17T07:11:52.988Z,2.78
2023-03-17T07:14:21.166Z,2.58
2023-03-17T07:16:50.247Z,3.00
2023-03-17T07:19:18.253Z,3.08
2023-03-17T07:21:47.167Z,2.92
2023-03-17T07:24:15.287Z,3.22
2023-03-17T07:26:43.198Z,2.13
2023-03-17T07:29:12.500Z,3.42
2023-03-17T07:31:41.267Z,2.38
2023-03-17T07:34:10.492Z,2.67
2023-03-17T07:36:38.614Z,2.30
2023-03-17T07:39:06.786Z,2.42
2023-03-17T07:41:34.917Z,2.47
2023-03-17T07:44:04.006Z,2.67
2023-03-17T07:46:33.422Z,2.90
2023-03-17T07:49:01.706Z,2.22
2023-03-17T07:51:29.724Z,3.00
2023-03-17T07:54:03.688Z,2.70
2023-03-17T07:56:32.092Z,2.83
2023-03-17T07:59:00.627Z,2.90
2023-03-17T08:01:28.932Z,2.95
2023-03-17T08:03:58.439Z,2.50
2023-03-17T08:06:26.628Z,3.08
2023-03-17T08:08:55.810Z,3.22
2023-03-17T08:11:24.416Z,2.75
2023-03-17T08:13:52.337Z,2.90
2023-03-17T08:16:20.283Z,2.97
2023-03-17T08:18:48.231Z,3.13
2023-03-17T08:21:17.692Z,2.58
2023-03-17T08:23:45.696Z,2.30
2023-03-17T08:26:15.997Z,2.90
2023-03-17T08:28:44.822Z,3.00
2023-03-17T08:31:14.606Z,3.20
2023-03-17T08:33:43.309Z,2.17
2023-03-17T08:36:12.821Z,2.63
2023-03-17T08:38:43.475Z,2.80
2023-03-17T08:41:13.341Z,2.67
2023-03-17T08:43:42.743Z,3.13
2023-03-17T08:46:15.416Z,3.42
2023-03-17T08:48:43.790Z,3.33
2023-03-17T08:51:12.474Z,3.20
2023-03-17T08:53:41.903Z,2.40
2023-03-17T08:56:10.417Z,2.00
2023-03-17T08:58:39.849Z,2.60
2023-03-17T09:01:08.744Z,2.67
2023-03-17T09:03:36.827Z,2.47
2023-03-17T09:06:07.221Z,2.88
2023-03-17T09:08:35.622Z,2.42
2023-03-17T09:11:05.474Z,2.80
2023-03-17T09:13:33.775Z,2.75
2023-03-17T09:16:02.984Z,2.78
2023-03-17T09:18:31.403Z,2.58
2023-03-17T09:20:59.323Z,3.28
2023-03-17T09:23:27.389Z,3.05
2023-03-17T09:25:55.369Z,3.00
2023-03-17T09:28:25.188Z,2.72
2023-03-17T09:30:53.260Z,1.83
2023-03-17T09:33:21.789Z,2.38
2023-03-17T09:35:52.733Z,2.55
2023-03-17T09:38:21.477Z,3.25
2023-03-17T09:40:52.114Z,2.95
2023-03-17T09:43:30.258Z,2.20
2023-03-17T09:45:59.650Z,2.60
2023-03-17T09:48:40.203Z,2.45
2023-03-17T09:51:10.258Z,2.90
2023-03-17T09:53:43.911Z,2.90
2023-03-17T09:56:15.570Z,2.13
2023-03-17T09:58:51.292Z,2.85
2023-03-17T10:01:19.427Z,2.20
2023-03-17T10:03:47.829Z,2.60
2023-03-17T10:06:35.229Z,2.53
2023-03-17T10:09:18.492Z,2.00
2023-03-17T10:14:38.548Z,2.78
2023-03-17T10:17:15.506Z,2.70
2023-03-17T10:19:46.131Z,2.55
2023-03-17T10:22:17.717Z,3.58
2023-03-17T10:24:48.358Z,2.88
2023-03-17T10:27:17.261Z,3.03
2023-03-17T10:29:48.426Z,3.40
2023-03-17T10:32:17.235Z,3.50
2023-03-17T10:34:45.609Z,2.95
2023-03-17T10:37:16.428Z,3.25
2023-03-17T10:39:47.351Z,2.88
2023-03-17T10:42:22.748Z,2.90
2023-03-17T10:44:56.211Z,2.15
2023-03-17T10:47:27.920Z,2.90
2023-03-17T10:49:57.787Z,3.25
2023-03-17T10:52:28.880Z,2.67
2023-03-17T10:55:03.740Z,2.65
2023-03-17T10:57:31.734Z,3.10
2023-03-17T11:00:05.085Z,3.40
2023-03-17T11:02:37.536Z,3.13
2023-03-17T11:05:09.486Z,2.00
2023-03-17T11:07:39.817Z,3.70
2023-03-17T11:10:17.144Z,3.10
2023-03-17T11:12:46.164Z,2.15
2023-03-17T11:15:17.806Z,2.40
2023-03-17T11:17:53.592Z,2.95
2023-03-17T11:20:30.414Z,2.55
2023-03-17T11:23:07.602Z,2.78
2023-03-17T11:25:40.486Z,3.00
2023-03-17T11:30:50.195Z,3.00
2023-03-17T11:33:35.113Z,2.65
2023-03-17T11:36:12.084Z,2.72
2023-03-17T11:38:44.706Z,3.20
2023-03-17T11:41:27.230Z,2.30
2023-03-17T11:44:06.532Z,2.20
2023-03-17T11:46:38.928Z,2.67
2023-03-17T11:49:12.616Z,3.17
2023-03-17T11:51:50.717Z,3.40
2023-03-17T11:54:24.836Z,2.92
2023-03-17T11:56:55.764Z,2.13
2023-03-17T11:59:28.999Z,3.00
2023-03-17T12:02:00.602Z,2.90
2023-03-17T12:04:34.361Z,2.70
2023-03-17T12:07:09.131Z,2.72
2023-03-17T12:09:42.194Z,3.15
2023-03-17T12:12:13.797Z,2.92
2023-03-17T12:14:46.363Z,2.63
2023-03-17T12:17:25.100Z,3.03
2023-03-17T12:20:10.331Z,3.20
2023-03-17T12:22:42.166Z,3.20
2023-03-17T12:25:16.500Z,2.90
2023-03-17T12:27:49.499Z,3.58
2023-03-17T12:30:25.164Z,2.38
2023-03-17T12:33:00.295Z,2.97
2023-03-17T12:35:31.586Z,2.67
2023-03-17T12:38:01.181Z,2.90
2023-03-17T12:40:33.749Z,3.40
2023-03-17T12:43:18.586Z,2.58
2023-03-17T12:45:57.133Z,3.20
2023-03-17T12:48:34.437Z,2.40
2023-03-17T12:51:17.695Z,3.03
2023-03-17T12:53:47.856Z,3.47
2023-03-17T12:56:20.824Z,3.20
2023-03-17T12:58:51.287Z,3.13
2023-03-17T13:01:33.254Z,3.13
2023-03-17T13:04:17.365Z,2.90
2023-03-17T13:06:48.176Z,2.10
2023-03-17T13:09:48.582Z,3.33
2023-03-17T13:13:06.508Z,3.08
2023-03-17T13:15:58.231Z,2.70
2023-03-17T13:18:51.702Z,2.83
2023-03-17T13:24:43.791Z,2.60
2023-03-17T13:27:16.483Z,2.80
2023-03-17T13:29:48.848Z,3.38
2023-03-17T13:32:40.213Z,2.90
2023-03-17T13:35:27.240Z,3.05
2023-03-17T13:38:42.738Z,2.50
2023-03-17T13:41:20.698Z,2.83
2023-03-17T13:44:04.748Z,2.90
2023-03-17T13:46:42.491Z,2.95
2023-03-17T13:49:24.457Z,2.42
2023-03-17T13:52:00.010Z,2.38
2023-03-17T13:54:35.126Z,2.90
2023-03-17T13:57:27.165Z,2.85
2023-03-17T14:00:06.235Z,2.65
2023-03-17T14:02:36.515Z,2.80
2023-03-17T14:05:07.500Z,2.60
2023-03-17T14:07:44.937Z,3.13
2023-03-17T14:10:17.816Z,2.72
2023-03-17T14:15:22.866Z,2.60
2023-03-17T14:17:53.957Z,2.75
2023-03-17T14:20:24.084Z,2.90
2023-03-17T14:23:03.275Z,2.90
2023-03-17T14:25:33.982Z,2.92
2023-03-17T14:28:06.114Z,2.42
2023-03-17T14:30:36.045Z,3.00
2023-03-17T14:33:06.576Z,2.90
2023-03-17T14:35:37.537Z,2.95
2023-03-17T14:38:19.244Z,2.65
2023-03-17T14:40:47.380Z,2.67
2023-03-17T14:43:20.832Z,3.10
2023-03-17T14:45:51.294Z,2.75
2023-03-17T14:48:24.643Z,2.67
2023-03-17T14:50:55.746Z,2.72
2023-03-17T14:53:28.049Z,2.10
2023-03-17T14:56:04.365Z,3.25
2023-03-17T14:58:38.686Z,2.33
2023-03-17T15:01:08.387Z,2.83
2023-03-17T15:03:39.896Z,3.92
2023-03-17T15:06:22.559Z,2.85
2023-03-17T15:08:50.894Z,2.58
2023-03-17T15:11:22.994Z,2.22
2023-03-17T15:13:56.046Z,2.88
2023-03-17T15:16:26.752Z,2.08
2023-03-17T15:19:04.105Z,2.97
2023-03-17T15:21:35.872Z,2.67
2023-03-17T15:24:20.433Z,2.90
2023-03-17T15:26:48.367Z,2.58
2023-03-17T15:29:17.695Z,3.10
2023-03-17T15:31:45.775Z,3.08
2023-03-17T15:34:14.530Z,3.10
2023-03-17T15:36:44.573Z,2.60
2023-03-17T15:39:12.866Z,2.72
2023-03-17T15:41:41.019Z,3.20
2023-03-17T15:44:09.165Z,2.63
2023-03-17T15:46:38.612Z,3.10
2023-03-17T15:49:10.813Z,2.85
2023-03-17T15:51:40.859Z,2.70
2023-03-17T15:54:14.592Z,2.83
2023-03-17T15:56:43.473Z,2.72
2023-03-17T15:59:12.822Z,3.33
2023-03-17T16:01:42.513Z,3.42
2023-03-17T16:04:11.010Z,3.03
2023-03-17T16:06:39.093Z,2.85
2023-03-17T16:09:10.872Z,3.00
2023-03-17T16:11:40.414Z,2.38
2023-03-17T16:14:08.578Z,2.85
2023-03-17T16:16:38.894Z,3.42
2023-03-17T16:19:12.019Z,2.83
2023-03-17T16:21:40.042Z,2.78
2023-03-17T16:24:15.261Z,3.67
2023-03-17T16:26:43.327Z,3.30
2023-03-17T16:29:14.025Z,3.78
2023-03-17T16:31:42.284Z,2.88
2023-03-17T16:34:17.297Z,3.80
2023-03-17T16:36:45.400Z,3.03
2023-03-17T16:39:18.704Z,3.38
2023-03-17T16:41:47.857Z,3.38
2023-03-17T16:44:17.553Z,3.72
2023-03-17T16:46:46.204Z,3.60
2023-03-17T16:49:17.570Z,3.20
2023-03-17T16:51:45.998Z,3.45
2023-03-17T16:54:16.004Z,3.45
2023-03-17T16:56:44.127Z,3.55
2023-03-17T16:59:18.699Z,3.45
2023-03-17T17:01:46.955Z,4.22
2023-03-17T17:04:14.915Z,3.88
2023-03-17T17:06:44.216Z,3.78
2023-03-17T17:09:12.143Z,3.58
2023-03-17T17:11:40.221Z,4.22
2023-03-17T17:14:08.288Z,3.42
2023-03-17T17:16:39.901Z,3.58
2023-03-17T17:19:15.809Z,3.78
2023-03-17T17:21:46.156Z,4.07
2023-03-17T17:24:15.083Z,4.00
2023-03-17T17:26:43.122Z,3.75
2023-03-17T17:29:11.073Z,3.90
2023-03-17T17:31:39.365Z,4.00
2023-03-17T17:34:07.403Z,3.40
2023-03-17T17:36:35.356Z,3.85
2023-03-17T17:39:04.874Z,3.50
2023-03-17T17:41:33.981Z,3.63
2023-03-17T17:44:02.135Z,3.75
2023-03-17T17:46:30.175Z,3.42
2023-03-17T17:48:58.557Z,3.53
2023-03-17T17:51:28.724Z,3.90
2023-03-17T17:53:56.789Z,3.78
2023-03-17T17:56:26.558Z,3.50
2023-03-17T17:58:57.645Z,3.50
2023-03-17T18:01:26.236Z,4.47
2023-03-17T18:03:54.255Z,4.43
2023-03-17T18:06:22.434Z,3.80
2023-03-17T18:08:50.691Z,4.18
2023-03-17T18:11:19.240Z,4.25
2023-03-17T18:13:48.606Z,3.85
2023-03-17T18:16:17.733Z,4.03
2023-03-17T18:18:47.169Z,3.70
2023-03-17T18:21:17.478Z,4.50
2023-03-17T18:23:48.724Z,4.35
2023-03-17T18:26:17.923Z,4.22
2023-03-17T18:28:45.970Z,4.25
2023-03-17T18:31:19.254Z,4.28
2023-03-17T18:33:48.873Z,4.80
2023-03-17T18:36:16.959Z,4.35
2023-03-17T18:38:45.070Z,4.40
2023-03-17T18:41:13.396Z,4.25
2023-03-17T18:43:48.046Z,5.13
2023-03-17T18:46:17.444Z,4.30
2023-03-17T18:48:45.518Z,4.60
2023-03-17T18:51:13.520Z,3.97
2023-03-17T18:53:41.635Z,4.68
2023-03-17T18:56:10.080Z,4.85
2023-03-17T18:58:38.128Z,4.32
2023-03-17T19:01:06.640Z,4.95
2023-03-17T19:03:37.490Z,4.70
2023-03-17T19:06:10.777Z,4.65
2023-03-17T19:08:40.910Z,5.28
2023-03-17T19:11:09.611Z,4.38
2023-03-17T19:13:37.878Z,4.80
2023-03-17T19:16:07.608Z,4.43
2023-03-17T19:18:41.830Z,4.88
2023-03-17T19:21:12.659Z,4.10
2023-03-17T19:23:41.542Z,4.55
2023-03-17T19:26:10.575Z,4.55
2023-03-17T19:28:40.251Z,4.28
2023-03-17T19:31:11.517Z,4.60
2023-03-17T19:33:44.005Z,5.57
2023-03-17T19:36:14.264Z,5.45
2023-03-17T19:38:43.578Z,4.95
2023-03-17T19:41:13.602Z,5.07
2023-03-17T19:43:43.648Z,5.45
2023-03-17T19:46:12.871Z,4.35
2023-03-17T19:48:43.179Z,5.15
2023-03-17T19:51:11.801Z,4.57
2023-03-17T19:53:41.439Z,4.47
2023-03-17T19:56:11.174Z,4.82
2023-03-17T19:58:39.677Z,4.63
2023-03-17T20:01:08.954Z,4.50
2023-03-17T20:03:42.484Z,5.28
2023-03-17T20:06:13.946Z,4.70
2023-03-17T20:08:46.351Z,4.93
2023-03-17T20:11:14.978Z,4.63
2023-03-17T20:13:43.235Z,4.63
2023-03-17T20:16:12.509Z,4.30
2023-03-17T20:18:40.952Z,4.40
2023-03-17T20:21:14.484Z,4.97
2023-03-17T20:23:42.975Z,4.15
2023-03-17T20:26:11.524Z,4.57
2023-03-17T20:28:40.007Z,4.43
2023-03-17T20:31:08.250Z,4.30
2023-03-17T20:33:36.631Z,4.35
2023-03-17T20:36:05.880Z,4.80
2023-03-17T20:38:39.070Z,4.10
2023-03-17T20:41:09.040Z,4.00
2023-03-17T20:43:37.683Z,3.50
2023-03-17T20:46:08.808Z,3.90
2023-03-17T20:48:39.171Z,3.92
2023-03-17T20:51:10.211Z,4.18
2023-03-17T20:53:39.834Z,4.82
2023-03-17T20:56:09.397Z,4.82
2023-03-17T20:58:39.121Z,5.07
2023-03-17T21:01:08.132Z,5.80
2023-03-17T21:03:36.203Z,5.57
2023-03-17T21:06:04.874Z,6.30
2023-03-17T21:08:37.081Z,5.75
2023-03-17T21:11:08.033Z,5.32
2023-03-17T21:13:36.421Z,6.10
2023-03-17T21:16:04.582Z,5.20
2023-03-17T21:18:32.758Z,5.07
2023-03-17T21:21:01.381Z,4.90
2023-03-17T21:23:29.411Z,5.07
2023-03-17T21:25:57.683Z,4.88
2023-03-17T21:28:27.335Z,4.65
2023-03-17T21:30:55.403Z,4.80
2023-03-17T21:33:23.442Z,4.85
2023-03-17T21:35:51.439Z,3.97
2023-03-17T21:38:19.484Z,4.38
2023-03-17T21:40:48.756Z,3.95
2023-03-17T21:43:16.772Z,3.95
2023-03-17T21:45:46.307Z,4.10
2023-03-17T21:48:14.356Z,4.18
2023-03-17T21:50:42.599Z,3.67
2023-03-17T21:53:11.351Z,4.15
2023-03-17T21:55:39.526Z,3.50
2023-03-17T21:58:08.230Z,4.00
2023-03-17T22:00:45.081Z,3.72
2023-03-17T22:03:14.919Z,3.50
2023-03-17T22:05:42.930Z,3.75
2023-03-17T22:08:10.955Z,3.55
2023-03-17T22:10:40.239Z,3.60
2023-03-17T22:13:08.457Z,3.72
2023-03-17T22:15:37.008Z,3.92
2023-03-17T22:18:05.201Z,3.65
2023-03-17T22:20:34.589Z,3.70
2023-03-17T22:23:02.627Z,3.42
2023-03-17T22:25:45.278Z,4.00
2023-03-17T22:28:13.924Z,3.33
2023-03-17T22:30:42.206Z,3.63
2023-03-17T22:33:10.597Z,3.92
2023-03-17T22:35:40.600Z,4.03
2023-03-17T22:38:09.473Z,3.58
2023-03-17T22:40:37.483Z,3.78
2023-03-17T22:43:05.692Z,3.55
2023-03-17T22:45:33.721Z,3.13
2023-03-17T22:48:01.854Z,3.20
2023-03-17T22:50:30.295Z,3.47
2023-03-17T22:52:59.785Z,2.95
2023-03-17T22:55:27.809Z,2.85
2023-03-17T22:57:55.826Z,2.80
2023-03-17T23:00:25.678Z,2.83
2023-03-17T23:02:53.668Z,3.20
2023-03-17T23:05:21.627Z,3.00
2023-03-17T23:07:51.255Z,3.00
2023-03-17T23:10:24.523Z,3.05
2023-03-17T23:12:52.895Z,3.08
2023-03-17T23:15:21.377Z,2.90
2023-03-17T23:17:49.466Z,3.13
2023-03-17T23:20:19.054Z,3.13
2023-03-17T23:22:47.150Z,3.30
2023-03-17T23:25:15.587Z,2.78
2023-03-17T23:27:45.216Z,2.92
2023-03-17T23:30:14.552Z,3.22
2023-03-17T23:32:43.348Z,2.90
2023-03-17T23:35:12.542Z,3.30
2023-03-17T23:37:41.043Z,3.30
2023-03-17T23:40:13.718Z,3.25
2023-03-17T23:42:41.756Z,3.38
2023-03-17T23:45:12.206Z,3.30
2023-03-17T23:47:40.560Z,3.22
2023-03-17T23:50:09.817Z,3.38
2023-03-17T23:52:38.121Z,3.40
2023-03-17T23:55:07.160Z,2.90
2023-03-17T23:57:36.733Z,2.92
